sensor_id;sensor_type;location;lat;lon;timestamp;P1;durP1;ratioP1;P2;durP2;ratioP2
76208;SDS011;64990;51.698;-0.292;2023-05-23T00:02:07;13.45;;;7.50;;
76208;SDS011;64990;51.698;-0.292;2023-05-23T00:04:33;17.88;;;6.97;;
76208;SDS011;64990;51.698;-0.292;2023-05-23T00:07:02;14.82;;;7.75;;
76208;SDS011;64990;51.698;-0.292;2023-05-23T00:09:29;17.85;;;8.32;;
76208;SDS011;64990;51.698;-0.292;2023-05-23T00:11:55;18.33;;;7.45;;
76208;SDS011;64990;51.698;-0.292;2023-05-23T00:14:21;17.10;;;7.05;;
76208;SDS011;64990;51.698;-0.292;2023-05-23T00:16:47;20.10;;;9.90;;
76208;SDS011;64990;51.698;-0.292;2023-05-23T00:19:13;26.35;;;8.05;;
76208;SDS011;64990;51.698;-0.292;2023-05-23T00:21:40;32.53;;;8.98;;
76208;SDS011;64990;51.698;-0.292;2023-05-23T00:24:12;35.95;;;8.82;;
76208;SDS011;64990;51.698;-0.292;2023-05-23T00:26:43;22.52;;;7.18;;
76208;SDS011;64990;51.698;-0.292;2023-05-23T00:29:09;12.60;;;6.57;;
76208;SDS011;64990;51.698;-0.292;2023-05-23T00:31:40;15.32;;;6.80;;
76208;SDS011;64990;51.698;-0.292;2023-05-23T00:34:10;22.92;;;7.53;;
76208;SDS011;64990;51.698;-0.292;2023-05-23T00:36:36;16.27;;;7.22;;
76208;SDS011;64990;51.698;-0.292;2023-05-23T00:39:02;29.52;;;9.93;;
76208;SDS011;64990;51.698;-0.292;2023-05-23T00:41:29;14.07;;;7.18;;
76208;SDS011;64990;51.698;-0.292;2023-05-23T00:43:56;16.42;;;8.30;;
76208;SDS011;64990;51.698;-0.292;2023-05-23T00:46:28;14.27;;;7.80;;
76208;SDS011;64990;51.698;-0.292;2023-05-23T01:27:59;17.58;;;7.53;;
76208;SDS011;64990;51.698;-0.292;2023-05-23T01:30:25;23.23;;;9.20;;
76208;SDS011;64990;51.698;-0.292;2023-05-23T01:32:55;18.98;;;8.10;;
76208;SDS011;64990;51.698;-0.292;2023-05-23T01:35:23;24.15;;;9.00;;
76208;SDS011;64990;51.698;-0.292;2023-05-23T01:37:51;13.35;;;6.50;;
76208;SDS011;64990;51.698;-0.292;2023-05-23T01:40:17;19.77;;;7.97;;
76208;SDS011;64990;51.698;-0.292;2023-05-23T01:42:43;18.77;;;6.82;;
76208;SDS011;64990;51.698;-0.292;2023-05-23T01:45:10;16.20;;;7.68;;
76208;SDS011;64990;51.698;-0.292;2023-05-23T01:47:36;12.98;;;7.85;;
76208;SDS011;64990;51.698;-0.292;2023-05-23T01:50:03;13.75;;;7.47;;
76208;SDS011;64990;51.698;-0.292;2023-05-23T01:52:29;18.55;;;8.43;;
76208;SDS011;64990;51.698;-0.292;2023-05-23T01:54:55;19.58;;;9.10;;
76208;SDS011;64990;51.698;-0.292;2023-05-23T01:57:21;18.73;;;9.38;;
76208;SDS011;64990;51.698;-0.292;2023-05-23T01:59:47;20.98;;;8.75;;
76208;SDS011;64990;51.698;-0.292;2023-05-23T02:02:13;15.40;;;8.18;;
76208;SDS011;64990;51.698;-0.292;2023-05-23T02:04:39;17.17;;;8.50;;
76208;SDS011;64990;51.698;-0.292;2023-05-23T02:07:05;21.02;;;10.20;;
76208;SDS011;64990;51.698;-0.292;2023-05-23T02:09:31;20.10;;;9.07;;
76208;SDS011;64990;51.698;-0.292;2023-05-23T02:11:57;29.65;;;8.60;;
76208;SDS011;64990;51.698;-0.292;2023-05-23T02:14:23;19.95;;;9.27;;
76208;SDS011;64990;51.698;-0.292;2023-05-23T02:16:50;20.17;;;8.70;;
76208;SDS011;64990;51.698;-0.292;2023-05-23T02:19:16;22.10;;;10.00;;
76208;SDS011;64990;51.698;-0.292;2023-05-23T02:21:42;18.92;;;7.65;;
76208;SDS011;64990;51.698;-0.292;2023-05-23T02:24:08;22.27;;;9.65;;
76208;SDS011;64990;51.698;-0.292;2023-05-23T02:26:35;17.05;;;7.40;;
76208;SDS011;64990;51.698;-0.292;2023-05-23T02:29:01;18.55;;;8.32;;
76208;SDS011;64990;51.698;-0.292;2023-05-23T02:31:27;20.80;;;7.40;;
76208;SDS011;64990;51.698;-0.292;2023-05-23T02:33:53;19.48;;;8.38;;
76208;SDS011;64990;51.698;-0.292;2023-05-23T02:36:19;13.20;;;8.05;;
76208;SDS011;64990;51.698;-0.292;2023-05-23T02:38:45;16.20;;;7.43;;
76208;SDS011;64990;51.698;-0.292;2023-05-23T02:41:11;17.60;;;6.95;;
76208;SDS011;64990;51.698;-0.292;2023-05-23T02:43:37;24.60;;;7.90;;
76208;SDS011;64990;51.698;-0.292;2023-05-23T02:46:03;20.90;;;7.88;;
76208;SDS011;64990;51.698;-0.292;2023-05-23T02:48:29;12.65;;;7.07;;
76208;SDS011;64990;51.698;-0.292;2023-05-23T02:50:55;13.73;;;7.07;;
76208;SDS011;64990;51.698;-0.292;2023-05-23T02:53:21;12.65;;;5.78;;
76208;SDS011;64990;51.698;-0.292;2023-05-23T02:55:47;18.25;;;8.40;;
76208;SDS011;64990;51.698;-0.292;2023-05-23T02:58:13;44.53;;;8.23;;
76208;SDS011;64990;51.698;-0.292;2023-05-23T03:00:40;18.38;;;8.98;;
76208;SDS011;64990;51.698;-0.292;2023-05-23T03:03:07;17.65;;;5.43;;
76208;SDS011;64990;51.698;-0.292;2023-05-23T03:05:33;10.07;;;5.63;;
76208;SDS011;64990;51.698;-0.292;2023-05-23T03:08:00;15.13;;;7.20;;
76208;SDS011;64990;51.698;-0.292;2023-05-23T03:10:26;13.32;;;6.68;;
76208;SDS011;64990;51.698;-0.292;2023-05-23T03:12:52;13.15;;;6.53;;
76208;SDS011;64990;51.698;-0.292;2023-05-23T03:15:18;11.98;;;5.78;;
76208;SDS011;64990;51.698;-0.292;2023-05-23T03:17:44;12.05;;;6.40;;
76208;SDS011;64990;51.698;-0.292;2023-05-23T03:20:10;16.45;;;7.07;;
76208;SDS011;64990;51.698;-0.292;2023-05-23T03:22:36;15.95;;;6.68;;
76208;SDS011;64990;51.698;-0.292;2023-05-23T03:25:02;18.52;;;8.38;;
76208;SDS011;64990;51.698;-0.292;2023-05-23T03:27:28;21.08;;;6.63;;
76208;SDS011;64990;51.698;-0.292;2023-05-23T03:29:54;13.57;;;7.53;;
76208;SDS011;64990;51.698;-0.292;2023-05-23T03:32:20;13.20;;;6.55;;
76208;SDS011;64990;51.698;-0.292;2023-05-23T03:34:46;12.25;;;6.38;;
76208;SDS011;64990;51.698;-0.292;2023-05-23T03:37:12;13.32;;;5.65;;
76208;SDS011;64990;51.698;-0.292;2023-05-23T03:39:38;10.00;;;5.53;;
76208;SDS011;64990;51.698;-0.292;2023-05-23T03:42:04;15.23;;;7.90;;
76208;SDS011;64990;51.698;-0.292;2023-05-23T03:44:30;20.60;;;7.47;;
76208;SDS011;64990;51.698;-0.292;2023-05-23T03:46:56;16.17;;;6.38;;
76208;SDS011;64990;51.698;-0.292;2023-05-23T03:49:22;17.50;;;6.97;;
76208;SDS011;64990;51.698;-0.292;2023-05-23T03:51:48;14.10;;;6.72;;
76208;SDS011;64990;51.698;-0.292;2023-05-23T03:54:14;17.23;;;6.03;;
76208;SDS011;64990;51.698;-0.292;2023-05-23T03:56:42;14.93;;;6.63;;
76208;SDS011;64990;51.698;-0.292;2023-05-23T03:59:08;18.33;;;6.43;;
76208;SDS011;64990;51.698;-0.292;2023-05-23T04:01:34;15.30;;;6.65;;
76208;SDS011;64990;51.698;-0.292;2023-05-23T04:03:59;16.45;;;6.60;;
76208;SDS011;64990;51.698;-0.292;2023-05-23T04:06:25;13.43;;;5.60;;
76208;SDS011;64990;51.698;-0.292;2023-05-23T04:08:55;23.25;;;5.50;;
76208;SDS011;64990;51.698;-0.292;2023-05-23T04:11:21;12.80;;;5.00;;
76208;SDS011;64990;51.698;-0.292;2023-05-23T04:13:47;16.85;;;8.10;;
76208;SDS011;64990;51.698;-0.292;2023-05-23T04:16:13;11.95;;;6.07;;
76208;SDS011;64990;51.698;-0.292;2023-05-23T04:18:40;19.23;;;6.68;;
76208;SDS011;64990;51.698;-0.292;2023-05-23T04:21:07;15.52;;;5.47;;
76208;SDS011;64990;51.698;-0.292;2023-05-23T04:23:33;17.15;;;5.72;;
76208;SDS011;64990;51.698;-0.292;2023-05-23T04:25:59;20.02;;;5.45;;
76208;SDS011;64990;51.698;-0.292;2023-05-23T04:28:25;34.00;;;7.38;;
76208;SDS011;64990;51.698;-0.292;2023-05-23T04:30:51;18.42;;;5.15;;
76208;SDS011;64990;51.698;-0.292;2023-05-23T04:33:17;17.05;;;5.53;;
76208;SDS011;64990;51.698;-0.292;2023-05-23T04:35:43;23.85;;;6.32;;
76208;SDS011;64990;51.698;-0.292;2023-05-23T04:38:10;15.00;;;5.55;;
76208;SDS011;64990;51.698;-0.292;2023-05-23T04:40:37;13.77;;;5.15;;
76208;SDS011;64990;51.698;-0.292;2023-05-23T04:43:03;14.38;;;4.88;;
76208;SDS011;64990;51.698;-0.292;2023-05-23T04:45:29;13.80;;;5.45;;
76208;SDS011;64990;51.698;-0.292;2023-05-23T04:47:55;10.85;;;4.70;;
76208;SDS011;64990;51.698;-0.292;2023-05-23T04:50:21;15.13;;;4.38;;
76208;SDS011;64990;51.698;-0.292;2023-05-23T04:52:47;21.38;;;4.90;;
76208;SDS011;64990;51.698;-0.292;2023-05-23T04:55:13;13.10;;;5.38;;
76208;SDS011;64990;51.698;-0.292;2023-05-23T04:57:39;13.68;;;4.18;;
76208;SDS011;64990;51.698;-0.292;2023-05-23T05:00:06;19.88;;;5.63;;
76208;SDS011;64990;51.698;-0.292;2023-05-23T05:02:35;11.93;;;4.82;;
76208;SDS011;64990;51.698;-0.292;2023-05-23T05:05:02;31.98;;;6.22;;
76208;SDS011;64990;51.698;-0.292;2023-05-23T05:07:28;17.30;;;4.72;;
76208;SDS011;64990;51.698;-0.292;2023-05-23T05:09:54;18.75;;;6.05;;
76208;SDS011;64990;51.698;-0.292;2023-05-23T05:12:20;13.98;;;4.75;;
76208;SDS011;64990;51.698;-0.292;2023-05-23T05:14:46;18.88;;;5.93;;
76208;SDS011;64990;51.698;-0.292;2023-05-23T05:17:12;13.10;;;5.05;;
76208;SDS011;64990;51.698;-0.292;2023-05-23T05:19:38;15.77;;;4.72;;
76208;SDS011;64990;51.698;-0.292;2023-05-23T05:22:04;25.52;;;6.13;;
76208;SDS011;64990;51.698;-0.292;2023-05-23T05:24:32;12.90;;;4.43;;
76208;SDS011;64990;51.698;-0.292;2023-05-23T05:26:58;18.58;;;5.65;;
76208;SDS011;64990;51.698;-0.292;2023-05-23T05:29:24;14.98;;;4.70;;
76208;SDS011;64990;51.698;-0.292;2023-05-23T05:31:50;19.60;;;5.28;;
76208;SDS011;64990;51.698;-0.292;2023-05-23T05:34:17;16.58;;;4.18;;
76208;SDS011;64990;51.698;-0.292;2023-05-23T05:36:43;25.90;;;5.15;;
76208;SDS011;64990;51.698;-0.292;2023-05-23T05:39:14;41.60;;;5.38;;
76208;SDS011;64990;51.698;-0.292;2023-05-23T05:41:40;22.00;;;4.32;;
76208;SDS011;64990;51.698;-0.292;2023-05-23T05:44:07;15.57;;;5.05;;
76208;SDS011;64990;51.698;-0.292;2023-05-23T05:46:33;25.88;;;4.88;;
76208;SDS011;64990;51.698;-0.292;2023-05-23T05:48:59;15.45;;;4.60;;
76208;SDS011;64990;51.698;-0.292;2023-05-23T05:51:25;14.82;;;4.68;;
76208;SDS011;64990;51.698;-0.292;2023-05-23T05:53:51;14.15;;;4.72;;
76208;SDS011;64990;51.698;-0.292;2023-05-23T05:56:17;10.48;;;3.65;;
76208;SDS011;64990;51.698;-0.292;2023-05-23T05:58:43;13.70;;;4.30;;
76208;SDS011;64990;51.698;-0.292;2023-05-23T06:01:09;32.60;;;6.60;;
76208;SDS011;64990;51.698;-0.292;2023-05-23T06:03:35;27.25;;;7.93;;
76208;SDS011;64990;51.698;-0.292;2023-05-23T06:06:01;17.48;;;4.13;;
76208;SDS011;64990;51.698;-0.292;2023-05-23T06:08:27;18.77;;;3.55;;
76208;SDS011;64990;51.698;-0.292;2023-05-23T06:10:53;13.82;;;4.55;;
76208;SDS011;64990;51.698;-0.292;2023-05-23T06:13:20;21.10;;;5.45;;
76208;SDS011;64990;51.698;-0.292;2023-05-23T06:15:46;13.82;;;5.28;;
76208;SDS011;64990;51.698;-0.292;2023-05-23T06:18:12;12.05;;;4.60;;
76208;SDS011;64990;51.698;-0.292;2023-05-23T06:20:38;19.70;;;4.53;;
76208;SDS011;64990;51.698;-0.292;2023-05-23T06:23:04;10.93;;;4.18;;
76208;SDS011;64990;51.698;-0.292;2023-05-23T06:25:30;20.67;;;4.88;;
76208;SDS011;64990;51.698;-0.292;2023-05-23T06:27:56;27.10;;;4.40;;
76208;SDS011;64990;51.698;-0.292;2023-05-23T06:30:23;33.00;;;5.82;;
76208;SDS011;64990;51.698;-0.292;2023-05-23T06:32:49;34.80;;;5.85;;
76208;SDS011;64990;51.698;-0.292;2023-05-23T06:35:15;28.83;;;5.40;;
76208;SDS011;64990;51.698;-0.292;2023-05-23T06:37:41;24.50;;;4.57;;
76208;SDS011;64990;51.698;-0.292;2023-05-23T06:40:10;16.13;;;3.95;;
76208;SDS011;64990;51.698;-0.292;2023-05-23T06:42:38;19.52;;;2.92;;
76208;SDS011;64990;51.698;-0.292;2023-05-23T06:45:04;18.25;;;4.43;;
76208;SDS011;64990;51.698;-0.292;2023-05-23T06:47:30;15.10;;;3.92;;
76208;SDS011;64990;51.698;-0.292;2023-05-23T06:49:56;20.50;;;4.55;;
76208;SDS011;64990;51.698;-0.292;2023-05-23T06:52:22;15.02;;;3.35;;
76208;SDS011;64990;51.698;-0.292;2023-05-23T06:54:48;14.98;;;4.82;;
76208;SDS011;64990;51.698;-0.292;2023-05-23T06:57:14;13.77;;;4.28;;
76208;SDS011;64990;51.698;-0.292;2023-05-23T06:59:40;10.98;;;3.97;;
76208;SDS011;64990;51.698;-0.292;2023-05-23T07:02:06;24.92;;;5.93;;
76208;SDS011;64990;51.698;-0.292;2023-05-23T07:04:32;14.88;;;4.28;;
76208;SDS011;64990;51.698;-0.292;2023-05-23T07:06:58;20.25;;;5.47;;
76208;SDS011;64990;51.698;-0.292;2023-05-23T07:09:24;22.80;;;3.60;;
76208;SDS011;64990;51.698;-0.292;2023-05-23T07:11:50;10.95;;;3.13;;
76208;SDS011;64990;51.698;-0.292;2023-05-23T07:14:16;21.38;;;5.28;;
76208;SDS011;64990;51.698;-0.292;2023-05-23T07:16:44;13.65;;;4.25;;
76208;SDS011;64990;51.698;-0.292;2023-05-23T07:19:10;21.67;;;5.75;;
76208;SDS011;64990;51.698;-0.292;2023-05-23T07:21:36;12.90;;;4.00;;
76208;SDS011;64990;51.698;-0.292;2023-05-23T07:24:02;8.20;;;2.85;;
76208;SDS011;64990;51.698;-0.292;2023-05-23T07:26:28;34.22;;;3.90;;
76208;SDS011;64990;51.698;-0.292;2023-05-23T07:28:54;28.33;;;5.47;;
76208;SDS011;64990;51.698;-0.292;2023-05-23T07:31:20;16.83;;;3.45;;
76208;SDS011;64990;51.698;-0.292;2023-05-23T07:33:49;10.80;;;3.33;;
76208;SDS011;64990;51.698;-0.292;2023-05-23T07:36:15;15.75;;;3.72;;
76208;SDS011;64990;51.698;-0.292;2023-05-23T07:38:41;16.00;;;4.78;;
76208;SDS011;64990;51.698;-0.292;2023-05-23T07:41:07;9.05;;;2.70;;
76208;SDS011;64990;51.698;-0.292;2023-05-23T07:43:33;15.45;;;3.28;;
76208;SDS011;64990;51.698;-0.292;2023-05-23T07:45:59;17.52;;;4.60;;
76208;SDS011;64990;51.698;-0.292;2023-05-23T07:48:25;17.15;;;4.18;;
76208;SDS011;64990;51.698;-0.292;2023-05-23T07:50:51;17.95;;;3.50;;
76208;SDS011;64990;51.698;-0.292;2023-05-23T07:53:19;17.83;;;3.85;;
76208;SDS011;64990;51.698;-0.292;2023-05-23T07:55:46;11.90;;;2.95;;
76208;SDS011;64990;51.698;-0.292;2023-05-23T07:58:13;21.55;;;3.47;;
76208;SDS011;64990;51.698;-0.292;2023-05-23T08:00:39;16.73;;;4.57;;
76208;SDS011;64990;51.698;-0.292;2023-05-23T08:03:05;9.30;;;3.17;;
76208;SDS011;64990;51.698;-0.292;2023-05-23T08:05:32;21.65;;;4.03;;
76208;SDS011;64990;51.698;-0.292;2023-05-23T08:07:58;19.67;;;4.00;;
76208;SDS011;64990;51.698;-0.292;2023-05-23T08:10:24;41.90;;;4.85;;
76208;SDS011;64990;51.698;-0.292;2023-05-23T08:12:52;35.50;;;5.40;;
76208;SDS011;64990;51.698;-0.292;2023-05-23T08:15:18;13.00;;;3.63;;
76208;SDS011;64990;51.698;-0.292;2023-05-23T08:17:47;12.32;;;3.22;;
76208;SDS011;64990;51.698;-0.292;2023-05-23T08:20:13;14.40;;;3.65;;
76208;SDS011;64990;51.698;-0.292;2023-05-23T08:22:39;23.63;;;3.38;;
76208;SDS011;64990;51.698;-0.292;2023-05-23T08:25:05;19.88;;;3.08;;
76208;SDS011;64990;51.698;-0.292;2023-05-23T08:27:31;14.05;;;3.85;;
76208;SDS011;64990;51.698;-0.292;2023-05-23T08:29:59;14.02;;;3.75;;
76208;SDS011;64990;51.698;-0.292;2023-05-23T08:32:26;14.70;;;3.42;;
76208;SDS011;64990;51.698;-0.292;2023-05-23T08:34:52;15.93;;;4.43;;
76208;SDS011;64990;51.698;-0.292;2023-05-23T08:37:19;24.45;;;4.20;;
76208;SDS011;64990;51.698;-0.292;2023-05-23T08:39:45;7.97;;;2.80;;
76208;SDS011;64990;51.698;-0.292;2023-05-23T08:42:11;11.80;;;3.22;;
76208;SDS011;64990;51.698;-0.292;2023-05-23T08:44:37;9.20;;;3.17;;
76208;SDS011;64990;51.698;-0.292;2023-05-23T08:47:04;9.75;;;2.40;;
76208;SDS011;64990;51.698;-0.292;2023-05-23T08:49:33;11.60;;;3.35;;
76208;SDS011;64990;51.698;-0.292;2023-05-23T08:52:00;11.48;;;4.07;;
76208;SDS011;64990;51.698;-0.292;2023-05-23T08:54:27;8.65;;;3.58;;
76208;SDS011;64990;51.698;-0.292;2023-05-23T08:56:53;15.88;;;3.08;;
76208;SDS011;64990;51.698;-0.292;2023-05-23T08:59:19;17.50;;;3.03;;
76208;SDS011;64990;51.698;-0.292;2023-05-23T09:01:46;6.68;;;2.03;;
76208;SDS011;64990;51.698;-0.292;2023-05-23T09:04:12;20.48;;;3.92;;
76208;SDS011;64990;51.698;-0.292;2023-05-23T09:06:38;4.88;;;2.22;;
76208;SDS011;64990;51.698;-0.292;2023-05-23T09:09:05;14.43;;;3.85;;
76208;SDS011;64990;51.698;-0.292;2023-05-23T09:11:31;18.75;;;3.10;;
76208;SDS011;64990;51.698;-0.292;2023-05-23T09:13:58;10.68;;;2.42;;
76208;SDS011;64990;51.698;-0.292;2023-05-23T09:16:30;15.18;;;3.90;;
76208;SDS011;64990;51.698;-0.292;2023-05-23T09:18:56;8.88;;;2.25;;
76208;SDS011;64990;51.698;-0.292;2023-05-23T09:21:23;10.90;;;3.00;;
76208;SDS011;64990;51.698;-0.292;2023-05-23T09:23:49;30.70;;;3.13;;
76208;SDS011;64990;51.698;-0.292;2023-05-23T09:26:15;16.23;;;3.42;;
76208;SDS011;64990;51.698;-0.292;2023-05-23T09:28:41;13.23;;;2.70;;
76208;SDS011;64990;51.698;-0.292;2023-05-23T09:31:08;17.98;;;2.88;;
76208;SDS011;64990;51.698;-0.292;2023-05-23T09:33:46;11.02;;;3.03;;
76208;SDS011;64990;51.698;-0.292;2023-05-23T09:36:13;8.43;;;2.90;;
76208;SDS011;64990;51.698;-0.292;2023-05-23T09:38:40;7.45;;;2.28;;
76208;SDS011;64990;51.698;-0.292;2023-05-23T09:41:06;14.13;;;3.47;;
76208;SDS011;64990;51.698;-0.292;2023-05-23T09:43:33;12.20;;;2.28;;
76208;SDS011;64990;51.698;-0.292;2023-05-23T09:45:59;20.67;;;3.58;;
76208;SDS011;64990;51.698;-0.292;2023-05-23T09:48:28;18.95;;;3.47;;
76208;SDS011;64990;51.698;-0.292;2023-05-23T09:50:55;13.07;;;4.63;;
76208;SDS011;64990;51.698;-0.292;2023-05-23T09:53:21;12.05;;;3.22;;
76208;SDS011;64990;51.698;-0.292;2023-05-23T09:55:49;11.73;;;2.75;;
76208;SDS011;64990;51.698;-0.292;2023-05-23T09:58:16;4.80;;;2.03;;
76208;SDS011;64990;51.698;-0.292;2023-05-23T10:00:43;21.08;;;5.18;;
76208;SDS011;64990;51.698;-0.292;2023-05-23T10:03:10;5.30;;;2.08;;
76208;SDS011;64990;51.698;-0.292;2023-05-23T10:08:07;18.77;;;3.78;;
76208;SDS011;64990;51.698;-0.292;2023-05-23T10:10:34;20.42;;;3.25;;
76208;SDS011;64990;51.698;-0.292;2023-05-23T10:13:14;6.55;;;2.30;;
76208;SDS011;64990;51.698;-0.292;2023-05-23T10:15:40;11.93;;;2.42;;
76208;SDS011;64990;51.698;-0.292;2023-05-23T10:20:33;5.40;;;2.15;;
76208;SDS011;64990;51.698;-0.292;2023-05-23T10:23:00;7.00;;;1.88;;
76208;SDS011;64990;51.698;-0.292;2023-05-23T10:25:27;24.58;;;2.75;;
76208;SDS011;64990;51.698;-0.292;2023-05-23T10:27:54;11.38;;;1.85;;
76208;SDS011;64990;51.698;-0.292;2023-05-23T10:30:26;10.02;;;3.30;;
76208;SDS011;64990;51.698;-0.292;2023-05-23T10:32:53;13.15;;;3.25;;
76208;SDS011;64990;51.698;-0.292;2023-05-23T10:35:21;23.83;;;3.10;;
76208;SDS011;64990;51.698;-0.292;2023-05-23T10:37:51;14.93;;;2.95;;
76208;SDS011;64990;51.698;-0.292;2023-05-23T10:45:24;8.07;;;2.30;;
76208;SDS011;64990;51.698;-0.292;2023-05-23T10:47:51;5.85;;;2.35;;
76208;SDS011;64990;51.698;-0.292;2023-05-23T10:52:59;7.63;;;2.85;;
76208;SDS011;64990;51.698;-0.292;2023-05-23T10:55:29;12.23;;;3.28;;
76208;SDS011;64990;51.698;-0.292;2023-05-23T11:00:55;9.70;;;2.78;;
76208;SDS011;64990;51.698;-0.292;2023-05-23T11:05:57;8.15;;;2.55;;
76208;SDS011;64990;51.698;-0.292;2023-05-23T11:08:25;14.95;;;3.88;;
76208;SDS011;64990;51.698;-0.292;2023-05-23T11:13:17;6.20;;;2.53;;
76208;SDS011;64990;51.698;-0.292;2023-05-23T11:15:43;9.13;;;3.50;;
76208;SDS011;64990;51.698;-0.292;2023-05-23T11:18:10;9.15;;;3.20;;
76208;SDS011;64990;51.698;-0.292;2023-05-23T11:20:44;13.88;;;2.05;;
76208;SDS011;64990;51.698;-0.292;2023-05-23T11:23:11;14.00;;;3.10;;
76208;SDS011;64990;51.698;-0.292;2023-05-23T11:25:41;12.38;;;2.88;;
76208;SDS011;64990;51.698;-0.292;2023-05-23T11:28:08;13.30;;;3.05;;
76208;SDS011;64990;51.698;-0.292;2023-05-23T11:30:34;12.90;;;2.90;;
76208;SDS011;64990;51.698;-0.292;2023-05-23T11:33:04;14.85;;;3.10;;
76208;SDS011;64990;51.698;-0.292;2023-05-23T11:35:32;15.68;;;2.65;;
76208;SDS011;64990;51.698;-0.292;2023-05-23T11:37:59;12.80;;;3.03;;
76208;SDS011;64990;51.698;-0.292;2023-05-23T11:40:30;14.82;;;2.97;;
76208;SDS011;64990;51.698;-0.292;2023-05-23T11:42:57;9.60;;;2.33;;
76208;SDS011;64990;51.698;-0.292;2023-05-23T11:45:23;11.45;;;2.75;;
76208;SDS011;64990;51.698;-0.292;2023-05-23T11:47:50;13.40;;;2.83;;
76208;SDS011;64990;51.698;-0.292;2023-05-23T11:50:16;16.25;;;4.07;;
76208;SDS011;64990;51.698;-0.292;2023-05-23T11:52:44;16.42;;;2.63;;
76208;SDS011;64990;51.698;-0.292;2023-05-23T11:55:15;10.70;;;2.47;;
76208;SDS011;64990;51.698;-0.292;2023-05-23T11:57:41;9.20;;;2.88;;
76208;SDS011;64990;51.698;-0.292;2023-05-23T12:00:08;12.52;;;2.92;;
76208;SDS011;64990;51.698;-0.292;2023-05-23T12:02:38;11.45;;;2.88;;
76208;SDS011;64990;51.698;-0.292;2023-05-23T12:05:11;16.13;;;3.00;;
76208;SDS011;64990;51.698;-0.292;2023-05-23T12:07:44;9.88;;;2.92;;
76208;SDS011;64990;51.698;-0.292;2023-05-23T12:10:11;6.43;;;2.30;;
76208;SDS011;64990;51.698;-0.292;2023-05-23T12:12:37;10.80;;;3.42;;
76208;SDS011;64990;51.698;-0.292;2023-05-23T12:15:03;13.85;;;2.83;;
76208;SDS011;64990;51.698;-0.292;2023-05-23T12:17:29;17.23;;;2.67;;
76208;SDS011;64990;51.698;-0.292;2023-05-23T12:19:56;14.65;;;3.67;;
76208;SDS011;64990;51.698;-0.292;2023-05-23T12:22:22;8.82;;;2.22;;
76208;SDS011;64990;51.698;-0.292;2023-05-23T12:24:51;17.55;;;2.85;;
76208;SDS011;64990;51.698;-0.292;2023-05-23T12:27:18;7.05;;;3.22;;
76208;SDS011;64990;51.698;-0.292;2023-05-23T12:29:49;8.45;;;2.80;;
76208;SDS011;64990;51.698;-0.292;2023-05-23T12:32:16;11.73;;;2.58;;
76208;SDS011;64990;51.698;-0.292;2023-05-23T12:34:42;12.45;;;3.55;;
76208;SDS011;64990;51.698;-0.292;2023-05-23T12:37:08;10.48;;;3.22;;
76208;SDS011;64990;51.698;-0.292;2023-05-23T12:39:34;15.00;;;4.35;;
76208;SDS011;64990;51.698;-0.292;2023-05-23T12:42:07;8.57;;;3.42;;
76208;SDS011;64990;51.698;-0.292;2023-05-23T12:44:34;13.52;;;3.08;;
76208;SDS011;64990;51.698;-0.292;2023-05-23T12:47:01;13.48;;;2.78;;
76208;SDS011;64990;51.698;-0.292;2023-05-23T12:49:27;9.65;;;2.78;;
76208;SDS011;64990;51.698;-0.292;2023-05-23T12:51:53;19.10;;;4.43;;
76208;SDS011;64990;51.698;-0.292;2023-05-23T12:54:19;20.50;;;3.15;;
76208;SDS011;64990;51.698;-0.292;2023-05-23T12:56:45;18.60;;;2.75;;
76208;SDS011;64990;51.698;-0.292;2023-05-23T12:59:11;17.25;;;4.07;;
76208;SDS011;64990;51.698;-0.292;2023-05-23T13:01:37;10.48;;;2.85;;
76208;SDS011;64990;51.698;-0.292;2023-05-23T13:04:03;10.18;;;2.13;;
76208;SDS011;64990;51.698;-0.292;2023-05-23T13:06:29;15.25;;;3.88;;
76208;SDS011;64990;51.698;-0.292;2023-05-23T13:08:55;7.63;;;2.13;;
76208;SDS011;64990;51.698;-0.292;2023-05-23T13:11:22;7.00;;;2.67;;
76208;SDS011;64990;51.698;-0.292;2023-05-23T13:13:49;13.98;;;3.63;;
76208;SDS011;64990;51.698;-0.292;2023-05-23T13:16:15;14.88;;;3.30;;
76208;SDS011;64990;51.698;-0.292;2023-05-23T13:18:41;8.27;;;2.65;;
76208;SDS011;64990;51.698;-0.292;2023-05-23T13:21:07;18.38;;;3.28;;
76208;SDS011;64990;51.698;-0.292;2023-05-23T13:23:33;17.80;;;3.00;;
76208;SDS011;64990;51.698;-0.292;2023-05-23T13:26:01;10.52;;;1.92;;
76208;SDS011;64990;51.698;-0.292;2023-05-23T13:28:27;12.23;;;3.17;;
76208;SDS011;64990;51.698;-0.292;2023-05-23T13:30:53;7.65;;;2.83;;
76208;SDS011;64990;51.698;-0.292;2023-05-23T13:33:19;10.52;;;3.35;;
76208;SDS011;64990;51.698;-0.292;2023-05-23T13:35:47;15.73;;;2.95;;
76208;SDS011;64990;51.698;-0.292;2023-05-23T13:38:14;23.65;;;4.00;;
76208;SDS011;64990;51.698;-0.292;2023-05-23T13:40:40;15.23;;;2.85;;
76208;SDS011;64990;51.698;-0.292;2023-05-23T13:43:06;8.60;;;2.10;;
76208;SDS011;64990;51.698;-0.292;2023-05-23T13:45:32;10.30;;;3.28;;
76208;SDS011;64990;51.698;-0.292;2023-05-23T13:47:58;12.57;;;3.55;;
76208;SDS011;64990;51.698;-0.292;2023-05-23T13:50:24;8.00;;;2.10;;
76208;SDS011;64990;51.698;-0.292;2023-05-23T13:52:51;11.90;;;3.90;;
76208;SDS011;64990;51.698;-0.292;2023-05-23T13:55:17;7.85;;;2.55;;
76208;SDS011;64990;51.698;-0.292;2023-05-23T13:57:43;8.90;;;2.38;;
76208;SDS011;64990;51.698;-0.292;2023-05-23T14:00:09;19.70;;;4.05;;
76208;SDS011;64990;51.698;-0.292;2023-05-23T14:02:36;17.13;;;4.80;;
76208;SDS011;64990;51.698;-0.292;2023-05-23T14:05:02;13.23;;;3.30;;
76208;SDS011;64990;51.698;-0.292;2023-05-23T14:07:28;13.65;;;2.45;;
76208;SDS011;64990;51.698;-0.292;2023-05-23T14:09:54;9.15;;;3.65;;
76208;SDS011;64990;51.698;-0.292;2023-05-23T14:12:21;8.65;;;1.88;;
76208;SDS011;64990;51.698;-0.292;2023-05-23T14:14:47;12.27;;;3.92;;
76208;SDS011;64990;51.698;-0.292;2023-05-23T14:17:14;7.00;;;2.40;;
76208;SDS011;64990;51.698;-0.292;2023-05-23T14:19:40;8.90;;;2.30;;
76208;SDS011;64990;51.698;-0.292;2023-05-23T14:22:06;11.35;;;3.05;;
76208;SDS011;64990;51.698;-0.292;2023-05-23T14:24:32;11.65;;;2.17;;
76208;SDS011;64990;51.698;-0.292;2023-05-23T14:26:58;11.48;;;2.85;;
76208;SDS011;64990;51.698;-0.292;2023-05-23T14:29:26;14.63;;;3.00;;
76208;SDS011;64990;51.698;-0.292;2023-05-23T14:31:52;12.95;;;2.60;;
76208;SDS011;64990;51.698;-0.292;2023-05-23T14:34:18;16.30;;;3.80;;
76208;SDS011;64990;51.698;-0.292;2023-05-23T14:36:45;8.75;;;2.20;;
76208;SDS011;64990;51.698;-0.292;2023-05-23T14:39:11;13.70;;;3.22;;
76208;SDS011;64990;51.698;-0.292;2023-05-23T14:41:37;15.65;;;2.80;;
76208;SDS011;64990;51.698;-0.292;2023-05-23T14:44:03;10.48;;;3.47;;
76208;SDS011;64990;51.698;-0.292;2023-05-23T14:46:30;6.95;;;2.28;;
76208;SDS011;64990;51.698;-0.292;2023-05-23T14:48:57;8.60;;;2.20;;
76208;SDS011;64990;51.698;-0.292;2023-05-23T14:51:23;7.78;;;2.63;;
76208;SDS011;64990;51.698;-0.292;2023-05-23T14:53:49;8.25;;;3.08;;
76208;SDS011;64990;51.698;-0.292;2023-05-23T14:56:16;8.88;;;2.63;;
76208;SDS011;64990;51.698;-0.292;2023-05-23T14:58:42;11.48;;;2.00;;
76208;SDS011;64990;51.698;-0.292;2023-05-23T15:01:10;11.73;;;2.47;;
76208;SDS011;64990;51.698;-0.292;2023-05-23T15:03:37;9.23;;;2.92;;
76208;SDS011;64990;51.698;-0.292;2023-05-23T15:06:03;8.65;;;2.45;;
76208;SDS011;64990;51.698;-0.292;2023-05-23T15:08:30;7.57;;;2.53;;
76208;SDS011;64990;51.698;-0.292;2023-05-23T15:10:57;23.55;;;3.35;;
76208;SDS011;64990;51.698;-0.292;2023-05-23T15:13:23;15.30;;;2.53;;
76208;SDS011;64990;51.698;-0.292;2023-05-23T15:15:49;7.70;;;1.98;;
76208;SDS011;64990;51.698;-0.292;2023-05-23T15:18:17;9.35;;;2.72;;
76208;SDS011;64990;51.698;-0.292;2023-05-23T15:20:43;11.18;;;1.75;;